This is the latest recevied weather packets stored in our database for station/object NK7E-2. If no packets are shown the sender has not sent any weather packets the latest 10 day(s).
| Time | Temp. | Humidity | Pressure | Rain* | Wind** | Luminosity | Snow |
|---|---|---|---|---|---|---|---|
| 1787827217 | 27.78° C | 29% | 1028.6 hPa | 0 mm | - | - | - |
| 1787826617 | 27.78° C | 29% | 1028.5 hPa | 0 mm | - | - | - |
| 1787826017 | 27.78° C | 29% | 1028.4 hPa | 0 mm | - | - | - |
| 1787825417 | 28.33° C | 28% | 1028.6 hPa | 0 mm | - | - | - |
| 1787824817 | 28.33° C | 28% | 1028.3 hPa | 0 mm | - | - | - |
| 1787824217 | 28.33° C | 28% | 1028.6 hPa | 0 mm | - | - | - |
| 1787823617 | 27.78° C | 29% | 1028.1 hPa | 0 mm | - | - | - |
| 1787823017 | 28.33° C | 27% | 1028.3 hPa | 0 mm | - | - | - |
| 1787822417 | 28.89° C | 27% | 1028.4 hPa | 0 mm | - | - | - |
| 1787821817 | 28.89° C | 26% | 1028.2 hPa | 0 mm | - | - | - |
| 1787821217 | 29.44° C | 26% | 1028.2 hPa | 0 mm | - | - | - |
| 1787820617 | 28.89° C | 27% | 1027.9 hPa | 0 mm | - | - | - |
| 1787820017 | 28.89° C | 27% | 1028.1 hPa | 0 mm | - | - | - |
| 1787819417 | 28.89° C | 27% | 1028.8 hPa | 0 mm | - | - | - |
| 1787818817 | 30° C | 25% | 1029.2 hPa | 0 mm | - | - | - |
| 1787818217 | 30° C | 25% | 1029.3 hPa | 0 mm | - | - | - |
| 1787817617 | 30.56° C | 24% | 1029.3 hPa | 0 mm | - | - | - |
| 1787817017 | 31.11° C | 24% | 1029.5 hPa | 0 mm | - | - | - |
| 1787816417 | 30.56° C | 24% | 1029.5 hPa | 0 mm | - | - | - |
| 1787815817 | 31.11° C | 24% | 1029.6 hPa | 0 mm | - | - | - |
| 1787815217 | 31.11° C | 24% | 1029.8 hPa | 0 mm | - | - | - |
| 1787814617 | 31.11° C | 24% | 1029.7 hPa | 0 mm | - | - | - |
| 1787814017 | 31.11° C | 24% | 1029.6 hPa | 0 mm | - | - | - |
| 1787813417 | 31.11° C | 24% | 1029.4 hPa | 0 mm | - | - | - |
| 1787812817 | 31.67° C | 24% | 1029.5 hPa | 0 mm | - | - | - |
* Rain latest hour (hover to see other rain measurements)
** Current wind speed in m/s (hover to see current wind gust speed)